sensor_id;sensor_type;location;lat;lon;timestamp;P1;durP1;ratioP1;P2;durP2;ratioP2
75885;SDS011;64561;44.018;10.144;2023-06-14T00:00:54;3.30;;;1.70;;
75885;SDS011;64561;44.018;10.144;2023-06-14T00:03:23;5.40;;;2.10;;
75885;SDS011;64561;44.018;10.144;2023-06-14T00:05:53;4.60;;;1.60;;
75885;SDS011;64561;44.018;10.144;2023-06-14T00:08:20;4.35;;;1.70;;
75885;SDS011;64561;44.018;10.144;2023-06-14T00:10:49;4.38;;;2.05;;
75885;SDS011;64561;44.018;10.144;2023-06-14T00:13:16;3.95;;;1.90;;
75885;SDS011;64561;44.018;10.144;2023-06-14T00:15:43;2.67;;;1.60;;
75885;SDS011;64561;44.018;10.144;2023-06-14T00:18:10;4.00;;;1.77;;
75885;SDS011;64561;44.018;10.144;2023-06-14T00:20:41;3.47;;;1.55;;
75885;SDS011;64561;44.018;10.144;2023-06-14T00:23:09;3.33;;;1.85;;
75885;SDS011;64561;44.018;10.144;2023-06-14T00:25:36;4.57;;;1.70;;
75885;SDS011;64561;44.018;10.144;2023-06-14T00:28:03;2.60;;;1.70;;
75885;SDS011;64561;44.018;10.144;2023-06-14T00:30:31;4.63;;;2.03;;
75885;SDS011;64561;44.018;10.144;2023-06-14T00:32:58;4.85;;;1.67;;
75885;SDS011;64561;44.018;10.144;2023-06-14T00:35:25;4.60;;;1.63;;
75885;SDS011;64561;44.018;10.144;2023-06-14T00:37:53;3.30;;;1.75;;
75885;SDS011;64561;44.018;10.144;2023-06-14T00:40:21;4.13;;;1.50;;
75885;SDS011;64561;44.018;10.144;2023-06-14T00:42:49;3.45;;;1.67;;
75885;SDS011;64561;44.018;10.144;2023-06-14T00:45:16;3.60;;;1.67;;
75885;SDS011;64561;44.018;10.144;2023-06-14T00:47:44;3.70;;;2.25;;
75885;SDS011;64561;44.018;10.144;2023-06-14T00:50:13;3.30;;;1.50;;
75885;SDS011;64561;44.018;10.144;2023-06-14T00:52:40;2.65;;;1.70;;
75885;SDS011;64561;44.018;10.144;2023-06-14T00:55:08;3.53;;;1.50;;
75885;SDS011;64561;44.018;10.144;2023-06-14T00:57:35;2.00;;;1.40;;
75885;SDS011;64561;44.018;10.144;2023-06-14T01:00:05;4.53;;;1.65;;
75885;SDS011;64561;44.018;10.144;2023-06-14T01:02:54;4.28;;;1.60;;
75885;SDS011;64561;44.018;10.144;2023-06-14T01:05:22;4.85;;;2.33;;
75885;SDS011;64561;44.018;10.144;2023-06-14T01:08:09;2.40;;;1.70;;
75885;SDS011;64561;44.018;10.144;2023-06-14T01:11:09;5.05;;;1.80;;
75885;SDS011;64561;44.018;10.144;2023-06-14T01:13:40;3.45;;;1.63;;
75885;SDS011;64561;44.018;10.144;2023-06-14T01:16:13;6.03;;;1.98;;
75885;SDS011;64561;44.018;10.144;2023-06-14T01:18:52;7.22;;;1.70;;
75885;SDS011;64561;44.018;10.144;2023-06-14T01:21:23;4.55;;;1.50;;
75885;SDS011;64561;44.018;10.144;2023-06-14T01:23:52;3.08;;;1.60;;
75885;SDS011;64561;44.018;10.144;2023-06-14T01:26:20;3.67;;;1.63;;
75885;SDS011;64561;44.018;10.144;2023-06-14T01:28:50;3.92;;;1.50;;
75885;SDS011;64561;44.018;10.144;2023-06-14T01:31:25;2.63;;;1.80;;
75885;SDS011;64561;44.018;10.144;2023-06-14T01:33:53;2.53;;;1.70;;
75885;SDS011;64561;44.018;10.144;2023-06-14T01:36:22;2.50;;;1.60;;
75885;SDS011;64561;44.018;10.144;2023-06-14T01:38:56;2.50;;;1.50;;
75885;SDS011;64561;44.018;10.144;2023-06-14T01:41:26;4.50;;;1.63;;
75885;SDS011;64561;44.018;10.144;2023-06-14T01:43:55;2.35;;;1.70;;
75885;SDS011;64561;44.018;10.144;2023-06-14T01:46:23;3.30;;;1.80;;
75885;SDS011;64561;44.018;10.144;2023-06-14T01:48:52;3.85;;;1.65;;
75885;SDS011;64561;44.018;10.144;2023-06-14T01:51:20;4.57;;;1.63;;
75885;SDS011;64561;44.018;10.144;2023-06-14T01:53:48;3.92;;;2.28;;
75885;SDS011;64561;44.018;10.144;2023-06-14T01:56:15;5.00;;;1.80;;
75885;SDS011;64561;44.018;10.144;2023-06-14T01:58:42;5.95;;;1.50;;
75885;SDS011;64561;44.018;10.144;2023-06-14T02:01:10;2.95;;;1.60;;
75885;SDS011;64561;44.018;10.144;2023-06-14T02:03:39;2.28;;;1.50;;
75885;SDS011;64561;44.018;10.144;2023-06-14T02:06:06;3.47;;;1.85;;
75885;SDS011;64561;44.018;10.144;2023-06-14T02:08:33;5.60;;;2.03;;
75885;SDS011;64561;44.018;10.144;2023-06-14T02:11:00;4.13;;;1.63;;
75885;SDS011;64561;44.018;10.144;2023-06-14T02:13:27;2.85;;;1.73;;
75885;SDS011;64561;44.018;10.144;2023-06-14T02:15:55;2.50;;;1.90;;
75885;SDS011;64561;44.018;10.144;2023-06-14T02:18:22;3.03;;;2.22;;
75885;SDS011;64561;44.018;10.144;2023-06-14T02:21:09;4.35;;;2.08;;
75885;SDS011;64561;44.018;10.144;2023-06-14T02:23:37;3.47;;;1.92;;
75885;SDS011;64561;44.018;10.144;2023-06-14T02:26:04;3.10;;;2.15;;
75885;SDS011;64561;44.018;10.144;2023-06-14T02:28:33;3.55;;;1.83;;
75885;SDS011;64561;44.018;10.144;2023-06-14T02:31:02;4.40;;;1.85;;
75885;SDS011;64561;44.018;10.144;2023-06-14T02:33:29;3.30;;;2.15;;
75885;SDS011;64561;44.018;10.144;2023-06-14T02:35:56;5.05;;;1.95;;
75885;SDS011;64561;44.018;10.144;2023-06-14T02:38:23;5.60;;;3.03;;
75885;SDS011;64561;44.018;10.144;2023-06-14T02:40:51;2.88;;;1.90;;
75885;SDS011;64561;44.018;10.144;2023-06-14T02:43:19;2.97;;;1.75;;
75885;SDS011;64561;44.018;10.144;2023-06-14T02:45:46;13.07;;;2.53;;
75885;SDS011;64561;44.018;10.144;2023-06-14T02:48:13;6.65;;;1.70;;
75885;SDS011;64561;44.018;10.144;2023-06-14T02:50:41;4.60;;;1.98;;
75885;SDS011;64561;44.018;10.144;2023-06-14T02:53:08;4.25;;;1.83;;
75885;SDS011;64561;44.018;10.144;2023-06-14T02:55:35;6.75;;;1.80;;
75885;SDS011;64561;44.018;10.144;2023-06-14T02:58:07;3.55;;;1.70;;
75885;SDS011;64561;44.018;10.144;2023-06-14T03:00:34;4.30;;;1.73;;
75885;SDS011;64561;44.018;10.144;2023-06-14T03:03:04;4.05;;;1.95;;
75885;SDS011;64561;44.018;10.144;2023-06-14T03:05:32;4.10;;;1.80;;
75885;SDS011;64561;44.018;10.144;2023-06-14T03:07:59;3.92;;;1.50;;
75885;SDS011;64561;44.018;10.144;2023-06-14T03:10:26;4.03;;;1.85;;
75885;SDS011;64561;44.018;10.144;2023-06-14T03:12:57;5.13;;;1.80;;
75885;SDS011;64561;44.018;10.144;2023-06-14T03:15:25;3.15;;;1.70;;
75885;SDS011;64561;44.018;10.144;2023-06-14T03:17:52;3.35;;;1.95;;
75885;SDS011;64561;44.018;10.144;2023-06-14T03:20:20;3.40;;;1.63;;
75885;SDS011;64561;44.018;10.144;2023-06-14T03:22:47;3.97;;;2.08;;
75885;SDS011;64561;44.018;10.144;2023-06-14T03:25:15;5.10;;;1.90;;
75885;SDS011;64561;44.018;10.144;2023-06-14T03:27:45;3.10;;;1.80;;
75885;SDS011;64561;44.018;10.144;2023-06-14T03:30:12;3.88;;;1.98;;
75885;SDS011;64561;44.018;10.144;2023-06-14T03:32:42;4.85;;;2.00;;
75885;SDS011;64561;44.018;10.144;2023-06-14T03:35:09;3.25;;;1.73;;
75885;SDS011;64561;44.018;10.144;2023-06-14T03:37:44;5.35;;;2.08;;
75885;SDS011;64561;44.018;10.144;2023-06-14T03:40:12;2.92;;;1.92;;
75885;SDS011;64561;44.018;10.144;2023-06-14T03:42:43;2.90;;;1.70;;
75885;SDS011;64561;44.018;10.144;2023-06-14T03:45:11;3.25;;;1.85;;
75885;SDS011;64561;44.018;10.144;2023-06-14T03:47:38;4.60;;;2.17;;
75885;SDS011;64561;44.018;10.144;2023-06-14T03:50:06;2.65;;;1.85;;
75885;SDS011;64561;44.018;10.144;2023-06-14T03:52:34;5.50;;;2.42;;
75885;SDS011;64561;44.018;10.144;2023-06-14T03:55:01;4.43;;;2.25;;
75885;SDS011;64561;44.018;10.144;2023-06-14T03:57:32;3.80;;;2.35;;
75885;SDS011;64561;44.018;10.144;2023-06-14T03:59:59;4.28;;;2.60;;
75885;SDS011;64561;44.018;10.144;2023-06-14T04:02:29;3.20;;;2.25;;
75885;SDS011;64561;44.018;10.144;2023-06-14T04:04:58;3.15;;;2.30;;
75885;SDS011;64561;44.018;10.144;2023-06-14T04:07:29;3.20;;;2.42;;
75885;SDS011;64561;44.018;10.144;2023-06-14T04:09:57;4.80;;;3.13;;
75885;SDS011;64561;44.018;10.144;2023-06-14T04:12:24;5.60;;;3.72;;
75885;SDS011;64561;44.018;10.144;2023-06-14T04:14:51;4.40;;;2.70;;
75885;SDS011;64561;44.018;10.144;2023-06-14T04:17:19;5.18;;;2.60;;
75885;SDS011;64561;44.018;10.144;2023-06-14T04:19:46;9.23;;;3.25;;
75885;SDS011;64561;44.018;10.144;2023-06-14T04:22:14;7.20;;;2.00;;
75885;SDS011;64561;44.018;10.144;2023-06-14T04:24:41;3.08;;;1.80;;
75885;SDS011;64561;44.018;10.144;2023-06-14T04:27:10;3.45;;;2.08;;
75885;SDS011;64561;44.018;10.144;2023-06-14T04:29:38;3.83;;;2.00;;
75885;SDS011;64561;44.018;10.144;2023-06-14T04:32:09;3.70;;;1.92;;
75885;SDS011;64561;44.018;10.144;2023-06-14T04:34:38;4.03;;;1.92;;
75885;SDS011;64561;44.018;10.144;2023-06-14T04:37:07;4.45;;;2.00;;
75885;SDS011;64561;44.018;10.144;2023-06-14T04:39:39;3.45;;;2.08;;
75885;SDS011;64561;44.018;10.144;2023-06-14T04:42:06;2.72;;;1.98;;
75885;SDS011;64561;44.018;10.144;2023-06-14T04:44:34;2.92;;;1.63;;
75885;SDS011;64561;44.018;10.144;2023-06-14T04:47:04;3.35;;;1.88;;
75885;SDS011;64561;44.018;10.144;2023-06-14T04:49:31;2.67;;;1.77;;
75885;SDS011;64561;44.018;10.144;2023-06-14T04:51:59;9.15;;;2.30;;
75885;SDS011;64561;44.018;10.144;2023-06-14T04:54:34;4.70;;;2.22;;
75885;SDS011;64561;44.018;10.144;2023-06-14T04:57:07;4.57;;;2.10;;
75885;SDS011;64561;44.018;10.144;2023-06-14T04:59:36;3.63;;;2.15;;
75885;SDS011;64561;44.018;10.144;2023-06-14T05:02:03;3.45;;;2.15;;
75885;SDS011;64561;44.018;10.144;2023-06-14T05:04:30;7.60;;;2.95;;
75885;SDS011;64561;44.018;10.144;2023-06-14T05:06:58;6.82;;;2.35;;
75885;SDS011;64561;44.018;10.144;2023-06-14T05:09:25;4.80;;;2.33;;
75885;SDS011;64561;44.018;10.144;2023-06-14T05:11:52;4.60;;;1.80;;
75885;SDS011;64561;44.018;10.144;2023-06-14T05:14:20;5.28;;;2.22;;
75885;SDS011;64561;44.018;10.144;2023-06-14T05:16:50;2.67;;;1.73;;
75885;SDS011;64561;44.018;10.144;2023-06-14T05:19:17;3.00;;;1.92;;
75885;SDS011;64561;44.018;10.144;2023-06-14T05:21:45;3.20;;;2.28;;
75885;SDS011;64561;44.018;10.144;2023-06-14T05:24:13;4.15;;;1.95;;
75885;SDS011;64561;44.018;10.144;2023-06-14T05:26:40;3.42;;;2.60;;
75885;SDS011;64561;44.018;10.144;2023-06-14T05:29:07;4.03;;;2.15;;
75885;SDS011;64561;44.018;10.144;2023-06-14T05:31:34;3.45;;;2.47;;
75885;SDS011;64561;44.018;10.144;2023-06-14T05:34:02;3.60;;;2.70;;
75885;SDS011;64561;44.018;10.144;2023-06-14T05:36:29;3.47;;;2.22;;
75885;SDS011;64561;44.018;10.144;2023-06-14T05:38:56;4.47;;;2.17;;
75885;SDS011;64561;44.018;10.144;2023-06-14T05:41:27;4.10;;;2.30;;
75885;SDS011;64561;44.018;10.144;2023-06-14T05:43:54;3.72;;;2.45;;
75885;SDS011;64561;44.018;10.144;2023-06-14T05:46:23;2.85;;;1.98;;
75885;SDS011;64561;44.018;10.144;2023-06-14T05:48:55;3.33;;;2.28;;
75885;SDS011;64561;44.018;10.144;2023-06-14T05:51:22;3.30;;;1.98;;
75885;SDS011;64561;44.018;10.144;2023-06-14T05:53:52;5.20;;;2.92;;
75885;SDS011;64561;44.018;10.144;2023-06-14T05:56:19;5.30;;;2.42;;
75885;SDS011;64561;44.018;10.144;2023-06-14T05:58:46;6.05;;;2.60;;
75885;SDS011;64561;44.018;10.144;2023-06-14T06:01:14;4.30;;;2.55;;
75885;SDS011;64561;44.018;10.144;2023-06-14T06:03:41;4.63;;;3.10;;
75885;SDS011;64561;44.018;10.144;2023-06-14T06:06:13;6.15;;;3.40;;
75885;SDS011;64561;44.018;10.144;2023-06-14T06:08:40;8.10;;;4.53;;
75885;SDS011;64561;44.018;10.144;2023-06-14T06:11:07;7.10;;;3.97;;
75885;SDS011;64561;44.018;10.144;2023-06-14T06:13:35;9.85;;;5.47;;
75885;SDS011;64561;44.018;10.144;2023-06-14T06:16:02;7.50;;;4.68;;
75885;SDS011;64561;44.018;10.144;2023-06-14T06:18:29;19.85;;;6.60;;
75885;SDS011;64561;44.018;10.144;2023-06-14T06:20:57;9.07;;;4.82;;
75885;SDS011;64561;44.018;10.144;2023-06-14T06:23:24;5.35;;;3.50;;
75885;SDS011;64561;44.018;10.144;2023-06-14T06:25:51;4.22;;;2.45;;
75885;SDS011;64561;44.018;10.144;2023-06-14T06:28:18;3.78;;;2.40;;
75885;SDS011;64561;44.018;10.144;2023-06-14T06:30:45;4.80;;;2.40;;
75885;SDS011;64561;44.018;10.144;2023-06-14T06:33:13;3.85;;;2.10;;
75885;SDS011;64561;44.018;10.144;2023-06-14T06:35:40;4.43;;;2.60;;
75885;SDS011;64561;44.018;10.144;2023-06-14T06:38:08;4.75;;;2.42;;
75885;SDS011;64561;44.018;10.144;2023-06-14T06:40:37;4.28;;;2.22;;
75885;SDS011;64561;44.018;10.144;2023-06-14T06:43:04;3.58;;;2.30;;
75885;SDS011;64561;44.018;10.144;2023-06-14T06:45:39;3.63;;;2.65;;
75885;SDS011;64561;44.018;10.144;2023-06-14T06:48:06;5.13;;;2.28;;
75885;SDS011;64561;44.018;10.144;2023-06-14T06:50:34;4.55;;;2.40;;
75885;SDS011;64561;44.018;10.144;2023-06-14T06:53:01;2.88;;;2.10;;
75885;SDS011;64561;44.018;10.144;2023-06-14T06:55:28;3.78;;;2.50;;
75885;SDS011;64561;44.018;10.144;2023-06-14T06:57:55;6.13;;;2.10;;
75885;SDS011;64561;44.018;10.144;2023-06-14T07:00:22;4.85;;;2.75;;
75885;SDS011;64561;44.018;10.144;2023-06-14T07:02:52;4.63;;;2.13;;
75885;SDS011;64561;44.018;10.144;2023-06-14T07:05:22;3.20;;;2.03;;
75885;SDS011;64561;44.018;10.144;2023-06-14T07:07:49;3.70;;;2.05;;
75885;SDS011;64561;44.018;10.144;2023-06-14T07:10:16;3.40;;;2.10;;
75885;SDS011;64561;44.018;10.144;2023-06-14T07:12:44;2.95;;;2.05;;
75885;SDS011;64561;44.018;10.144;2023-06-14T07:15:11;3.47;;;2.05;;
75885;SDS011;64561;44.018;10.144;2023-06-14T07:17:39;4.15;;;1.70;;
75885;SDS011;64561;44.018;10.144;2023-06-14T07:20:06;2.90;;;1.77;;
75885;SDS011;64561;44.018;10.144;2023-06-14T07:22:41;3.55;;;2.00;;
75885;SDS011;64561;44.018;10.144;2023-06-14T07:25:12;4.45;;;1.92;;
75885;SDS011;64561;44.018;10.144;2023-06-14T07:27:43;3.10;;;1.73;;
75885;SDS011;64561;44.018;10.144;2023-06-14T07:30:12;2.90;;;1.92;;
75885;SDS011;64561;44.018;10.144;2023-06-14T07:32:39;2.90;;;1.70;;
75885;SDS011;64561;44.018;10.144;2023-06-14T07:35:06;3.92;;;1.92;;
75885;SDS011;64561;44.018;10.144;2023-06-14T07:37:34;3.97;;;2.00;;
75885;SDS011;64561;44.018;10.144;2023-06-14T07:40:01;3.85;;;2.33;;
75885;SDS011;64561;44.018;10.144;2023-06-14T07:42:34;2.97;;;2.10;;
75885;SDS011;64561;44.018;10.144;2023-06-14T07:45:02;3.90;;;2.03;;
75885;SDS011;64561;44.018;10.144;2023-06-14T07:47:30;5.47;;;2.50;;
75885;SDS011;64561;44.018;10.144;2023-06-14T07:49:57;3.47;;;2.10;;
75885;SDS011;64561;44.018;10.144;2023-06-14T07:52:24;3.80;;;2.10;;
75885;SDS011;64561;44.018;10.144;2023-06-14T07:54:52;3.17;;;1.80;;
75885;SDS011;64561;44.018;10.144;2023-06-14T07:57:19;3.35;;;1.67;;
75885;SDS011;64561;44.018;10.144;2023-06-14T07:59:46;4.05;;;1.80;;
75885;SDS011;64561;44.018;10.144;2023-06-14T08:02:14;4.50;;;1.52;;
75885;SDS011;64561;44.018;10.144;2023-06-14T08:04:41;3.08;;;1.98;;
75885;SDS011;64561;44.018;10.144;2023-06-14T08:07:09;3.03;;;1.90;;
75885;SDS011;64561;44.018;10.144;2023-06-14T08:09:36;3.10;;;1.73;;
75885;SDS011;64561;44.018;10.144;2023-06-14T08:12:06;3.53;;;1.80;;
75885;SDS011;64561;44.018;10.144;2023-06-14T08:14:37;3.25;;;2.00;;
75885;SDS011;64561;44.018;10.144;2023-06-14T08:17:04;2.33;;;1.60;;
75885;SDS011;64561;44.018;10.144;2023-06-14T08:19:31;2.60;;;1.80;;
75885;SDS011;64561;44.018;10.144;2023-06-14T08:21:58;2.53;;;1.67;;
75885;SDS011;64561;44.018;10.144;2023-06-14T08:24:26;3.22;;;1.92;;
75885;SDS011;64561;44.018;10.144;2023-06-14T08:26:55;2.28;;;1.48;;
75885;SDS011;64561;44.018;10.144;2023-06-14T08:29:23;3.55;;;2.00;;
75885;SDS011;64561;44.018;10.144;2023-06-14T08:31:50;2.58;;;1.70;;
75885;SDS011;64561;44.018;10.144;2023-06-14T08:34:17;4.07;;;1.98;;
75885;SDS011;64561;44.018;10.144;2023-06-14T08:36:44;3.67;;;2.10;;
75885;SDS011;64561;44.018;10.144;2023-06-14T08:39:11;4.18;;;1.98;;
75885;SDS011;64561;44.018;10.144;2023-06-14T08:41:38;3.20;;;1.90;;
75885;SDS011;64561;44.018;10.144;2023-06-14T08:44:05;4.10;;;1.95;;
75885;SDS011;64561;44.018;10.144;2023-06-14T08:46:34;2.47;;;1.52;;
75885;SDS011;64561;44.018;10.144;2023-06-14T08:49:04;2.97;;;1.80;;
75885;SDS011;64561;44.018;10.144;2023-06-14T08:51:33;2.70;;;1.80;;
75885;SDS011;64561;44.018;10.144;2023-06-14T08:54:03;2.72;;;1.70;;
75885;SDS011;64561;44.018;10.144;2023-06-14T08:56:34;2.65;;;1.83;;
75885;SDS011;64561;44.018;10.144;2023-06-14T08:59:04;3.53;;;1.80;;
75885;SDS011;64561;44.018;10.144;2023-06-14T09:01:34;2.67;;;1.90;;
75885;SDS011;64561;44.018;10.144;2023-06-14T09:04:01;3.28;;;1.95;;
75885;SDS011;64561;44.018;10.144;2023-06-14T09:06:29;3.35;;;1.98;;
75885;SDS011;64561;44.018;10.144;2023-06-14T09:08:56;2.70;;;1.80;;
75885;SDS011;64561;44.018;10.144;2023-06-14T09:11:24;3.72;;;2.10;;
75885;SDS011;64561;44.018;10.144;2023-06-14T09:13:52;4.38;;;2.20;;
75885;SDS011;64561;44.018;10.144;2023-06-14T09:16:19;4.45;;;2.28;;
75885;SDS011;64561;44.018;10.144;2023-06-14T09:18:47;2.97;;;1.88;;
75885;SDS011;64561;44.018;10.144;2023-06-14T09:21:15;3.10;;;2.10;;
75885;SDS011;64561;44.018;10.144;2023-06-14T09:23:44;4.80;;;2.25;;
75885;SDS011;64561;44.018;10.144;2023-06-14T09:26:15;3.55;;;1.50;;
75885;SDS011;64561;44.018;10.144;2023-06-14T09:28:44;4.55;;;2.30;;
75885;SDS011;64561;44.018;10.144;2023-06-14T09:31:13;3.28;;;2.13;;
75885;SDS011;64561;44.018;10.144;2023-06-14T09:33:44;3.47;;;2.10;;
75885;SDS011;64561;44.018;10.144;2023-06-14T09:36:15;5.82;;;2.25;;
75885;SDS011;64561;44.018;10.144;2023-06-14T09:38:56;3.13;;;1.88;;
75885;SDS011;64561;44.018;10.144;2023-06-14T09:41:34;3.42;;;2.10;;
75885;SDS011;64561;44.018;10.144;2023-06-14T09:44:09;3.03;;;1.92;;
75885;SDS011;64561;44.018;10.144;2023-06-14T09:46:44;3.30;;;2.17;;
75885;SDS011;64561;44.018;10.144;2023-06-14T09:49:11;5.30;;;2.63;;
75885;SDS011;64561;44.018;10.144;2023-06-14T09:51:43;4.28;;;2.40;;
75885;SDS011;64561;44.018;10.144;2023-06-14T09:54:14;3.55;;;2.22;;
75885;SDS011;64561;44.018;10.144;2023-06-14T09:56:46;3.78;;;2.10;;
75885;SDS011;64561;44.018;10.144;2023-06-14T09:59:16;3.83;;;2.13;;
75885;SDS011;64561;44.018;10.144;2023-06-14T10:01:48;3.22;;;2.05;;
75885;SDS011;64561;44.018;10.144;2023-06-14T10:04:16;4.15;;;2.25;;
75885;SDS011;64561;44.018;10.144;2023-06-14T10:06:48;5.00;;;2.28;;
75885;SDS011;64561;44.018;10.144;2023-06-14T10:09:17;2.67;;;1.80;;
75885;SDS011;64561;44.018;10.144;2023-06-14T10:11:44;3.20;;;1.98;;
75885;SDS011;64561;44.018;10.144;2023-06-14T10:14:15;2.65;;;1.90;;
75885;SDS011;64561;44.018;10.144;2023-06-14T10:19:46;2.90;;;1.92;;
75885;SDS011;64561;44.018;10.144;2023-06-14T10:25:28;5.47;;;2.13;;
75885;SDS011;64561;44.018;10.144;2023-06-14T10:33:32;3.30;;;2.35;;
75885;SDS011;64561;44.018;10.144;2023-06-14T10:36:09;2.97;;;1.95;;
75885;SDS011;64561;44.018;10.144;2023-06-14T10:41:36;3.67;;;1.98;;
75885;SDS011;64561;44.018;10.144;2023-06-14T10:46:40;2.17;;;1.60;;
75885;SDS011;64561;44.018;10.144;2023-06-14T10:49:12;2.67;;;1.83;;
75885;SDS011;64561;44.018;10.144;2023-06-14T10:51:44;2.40;;;1.73;;
75885;SDS011;64561;44.018;10.144;2023-06-14T10:54:16;2.00;;;1.50;;
75885;SDS011;64561;44.018;10.144;2023-06-14T10:56:45;2.92;;;2.00;;
75885;SDS011;64561;44.018;10.144;2023-06-14T10:59:17;3.38;;;2.10;;
75885;SDS011;64561;44.018;10.144;2023-06-14T11:04:14;3.08;;;2.03;;
75885;SDS011;64561;44.018;10.144;2023-06-14T11:06:47;4.40;;;1.80;;
75885;SDS011;64561;44.018;10.144;2023-06-14T11:11:49;2.85;;;1.73;;
75885;SDS011;64561;44.018;10.144;2023-06-14T11:14:23;3.47;;;1.90;;
75885;SDS011;64561;44.018;10.144;2023-06-14T11:16:50;3.28;;;2.13;;
75885;SDS011;64561;44.018;10.144;2023-06-14T11:19:17;2.03;;;1.50;;
75885;SDS011;64561;44.018;10.144;2023-06-14T11:21:47;3.85;;;1.77;;
75885;SDS011;64561;44.018;10.144;2023-06-14T11:24:14;2.35;;;1.60;;
75885;SDS011;64561;44.018;10.144;2023-06-14T11:26:42;3.28;;;1.85;;
75885;SDS011;64561;44.018;10.144;2023-06-14T11:29:09;3.80;;;1.60;;
75885;SDS011;64561;44.018;10.144;2023-06-14T11:31:36;2.90;;;1.75;;
75885;SDS011;64561;44.018;10.144;2023-06-14T11:34:03;2.22;;;1.63;;
75885;SDS011;64561;44.018;10.144;2023-06-14T11:36:33;3.10;;;1.88;;
75885;SDS011;64561;44.018;10.144;2023-06-14T11:39:01;3.42;;;2.10;;
75885;SDS011;64561;44.018;10.144;2023-06-14T11:41:37;3.30;;;2.22;;
75885;SDS011;64561;44.018;10.144;2023-06-14T11:44:05;3.72;;;2.33;;
75885;SDS011;64561;44.018;10.144;2023-06-14T11:46:34;2.95;;;1.80;;
75885;SDS011;64561;44.018;10.144;2023-06-14T11:49:02;3.33;;;2.13;;
75885;SDS011;64561;44.018;10.144;2023-06-14T11:51:34;2.42;;;1.52;;
75885;SDS011;64561;44.018;10.144;2023-06-14T11:54:02;3.05;;;1.83;;
75885;SDS011;64561;44.018;10.144;2023-06-14T11:56:31;2.40;;;1.63;;
75885;SDS011;64561;44.018;10.144;2023-06-14T11:58:59;2.40;;;1.70;;
75885;SDS011;64561;44.018;10.144;2023-06-14T12:01:29;3.20;;;2.13;;
75885;SDS011;64561;44.018;10.144;2023-06-14T12:03:59;3.17;;;2.20;;
75885;SDS011;64561;44.018;10.144;2023-06-14T12:06:27;2.95;;;1.85;;
75885;SDS011;64561;44.018;10.144;2023-06-14T12:09:00;3.67;;;1.77;;
75885;SDS011;64561;44.018;10.144;2023-06-14T12:11:35;2.78;;;1.75;;
75885;SDS011;64561;44.018;10.144;2023-06-14T12:14:06;2.83;;;2.13;;
75885;SDS011;64561;44.018;10.144;2023-06-14T12:16:37;2.30;;;1.60;;
75885;SDS011;64561;44.018;10.144;2023-06-14T12:19:13;3.05;;;1.98;;
75885;SDS011;64561;44.018;10.144;2023-06-14T12:21:42;3.20;;;1.98;;
75885;SDS011;64561;44.018;10.144;2023-06-14T12:24:14;3.05;;;1.90;;
75885;SDS011;64561;44.018;10.144;2023-06-14T12:26:42;4.55;;;1.80;;
75885;SDS011;64561;44.018;10.144;2023-06-14T12:29:09;2.28;;;1.55;;
75885;SDS011;64561;44.018;10.144;2023-06-14T12:31:39;2.40;;;1.58;;
75885;SDS011;64561;44.018;10.144;2023-06-14T12:34:09;2.40;;;1.63;;
75885;SDS011;64561;44.018;10.144;2023-06-14T12:36:37;4.07;;;2.00;;
75885;SDS011;64561;44.018;10.144;2023-06-14T12:39:12;1.85;;;1.35;;
75885;SDS011;64561;44.018;10.144;2023-06-14T12:41:39;2.25;;;1.55;;
75885;SDS011;64561;44.018;10.144;2023-06-14T12:44:10;2.58;;;1.90;;
75885;SDS011;64561;44.018;10.144;2023-06-14T12:46:38;4.38;;;1.65;;
75885;SDS011;64561;44.018;10.144;2023-06-14T12:49:10;2.90;;;1.58;;
75885;SDS011;64561;44.018;10.144;2023-06-14T12:51:38;2.08;;;1.48;;
75885;SDS011;64561;44.018;10.144;2023-06-14T12:54:07;2.13;;;1.42;;
75885;SDS011;64561;44.018;10.144;2023-06-14T12:56:34;2.50;;;1.50;;
75885;SDS011;64561;44.018;10.144;2023-06-14T12:59:03;2.67;;;1.60;;
75885;SDS011;64561;44.018;10.144;2023-06-14T13:01:31;4.22;;;1.80;;
75885;SDS011;64561;44.018;10.144;2023-06-14T13:03:58;2.90;;;1.80;;
75885;SDS011;64561;44.018;10.144;2023-06-14T13:06:25;3.95;;;1.50;;
75885;SDS011;64561;44.018;10.144;2023-06-14T13:08:53;2.88;;;1.67;;
75885;SDS011;64561;44.018;10.144;2023-06-14T13:11:21;2.38;;;1.52;;
75885;SDS011;64561;44.018;10.144;2023-06-14T13:13:49;3.15;;;1.50;;
75885;SDS011;64561;44.018;10.144;2023-06-14T13:16:16;3.25;;;2.17;;
75885;SDS011;64561;44.018;10.144;2023-06-14T13:18:43;7.15;;;2.72;;
75885;SDS011;64561;44.018;10.144;2023-06-14T13:21:10;5.45;;;2.42;;
75885;SDS011;64561;44.018;10.144;2023-06-14T13:23:38;11.50;;;2.70;;
75885;SDS011;64561;44.018;10.144;2023-06-14T13:26:05;7.55;;;3.03;;
75885;SDS011;64561;44.018;10.144;2023-06-14T13:28:32;4.28;;;2.22;;
75885;SDS011;64561;44.018;10.144;2023-06-14T13:30:59;4.38;;;2.30;;
75885;SDS011;64561;44.018;10.144;2023-06-14T13:33:26;7.80;;;2.60;;
75885;SDS011;64561;44.018;10.144;2023-06-14T13:35:53;4.40;;;2.42;;
75885;SDS011;64561;44.018;10.144;2023-06-14T13:38:20;3.35;;;2.20;;
75885;SDS011;64561;44.018;10.144;2023-06-14T13:40:47;3.15;;;2.10;;
75885;SDS011;64561;44.018;10.144;2023-06-14T13:43:14;3.88;;;2.25;;
75885;SDS011;64561;44.018;10.144;2023-06-14T13:45:42;4.22;;;2.08;;
75885;SDS011;64561;44.018;10.144;2023-06-14T13:48:08;5.13;;;2.20;;
75885;SDS011;64561;44.018;10.144;2023-06-14T13:50:36;4.35;;;2.78;;
75885;SDS011;64561;44.018;10.144;2023-06-14T13:53:03;4.60;;;2.22;;
75885;SDS011;64561;44.018;10.144;2023-06-14T13:55:30;3.60;;;2.30;;
75885;SDS011;64561;44.018;10.144;2023-06-14T13:57:57;5.72;;;2.50;;
75885;SDS011;64561;44.018;10.144;2023-06-14T14:00:24;3.63;;;2.40;;
75885;SDS011;64561;44.018;10.144;2023-06-14T14:02:51;8.57;;;2.42;;
75885;SDS011;64561;44.018;10.144;2023-06-14T14:05:19;5.43;;;2.28;;
75885;SDS011;64561;44.018;10.144;2023-06-14T14:07:47;4.03;;;2.13;;
75885;SDS011;64561;44.018;10.144;2023-06-14T14:10:14;5.07;;;2.42;;
75885;SDS011;64561;44.018;10.144;2023-06-14T14:12:42;5.28;;;2.63;;
75885;SDS011;64561;44.018;10.144;2023-06-14T14:15:09;4.60;;;2.40;;
75885;SDS011;64561;44.018;10.144;2023-06-14T14:17:40;5.97;;;2.50;;
75885;SDS011;64561;44.018;10.144;2023-06-14T14:20:08;5.25;;;2.42;;
75885;SDS011;64561;44.018;10.144;2023-06-14T14:22:38;6.57;;;2.60;;
75885;SDS011;64561;44.018;10.144;2023-06-14T14:25:05;4.18;;;2.60;;
75885;SDS011;64561;44.018;10.144;2023-06-14T14:27:32;5.55;;;3.03;;
75885;SDS011;64561;44.018;10.144;2023-06-14T14:29:59;7.05;;;2.67;;
75885;SDS011;64561;44.018;10.144;2023-06-14T14:32:27;5.40;;;2.83;;
75885;SDS011;64561;44.018;10.144;2023-06-14T14:34:54;5.20;;;3.25;;
75885;SDS011;64561;44.018;10.144;2023-06-14T14:37:21;6.32;;;3.00;;
75885;SDS011;64561;44.018;10.144;2023-06-14T14:39:48;3.97;;;2.53;;
75885;SDS011;64561;44.018;10.144;2023-06-14T14:42:15;4.30;;;2.22;;
75885;SDS011;64561;44.018;10.144;2023-06-14T14:44:42;3.70;;;2.60;;
75885;SDS011;64561;44.018;10.144;2023-06-14T14:47:11;11.32;;;3.45;;
75885;SDS011;64561;44.018;10.144;2023-06-14T14:49:38;5.40;;;2.45;;
75885;SDS011;64561;44.018;10.144;2023-06-14T14:52:05;4.53;;;2.80;;
75885;SDS011;64561;44.018;10.144;2023-06-14T14:54:48;6.22;;;3.40;;
75885;SDS011;64561;44.018;10.144;2023-06-14T14:57:15;3.53;;;2.50;;
75885;SDS011;64561;44.018;10.144;2023-06-14T14:59:42;6.78;;;2.78;;
75885;SDS011;64561;44.018;10.144;2023-06-14T15:02:09;4.45;;;2.67;;
75885;SDS011;64561;44.018;10.144;2023-06-14T15:04:37;5.63;;;3.10;;